sensor_id;sensor_type;location;lat;lon;timestamp;pressure;altitude;pressure_sealevel;temperature;humidity
32330;BME280;18807;52.434;13.238;2023-05-21T00:07:03;75988.00;;;-142.05;82.11
32330;BME280;18807;52.434;13.238;2023-05-21T00:14:55;75992.06;;;-142.05;83.14
32330;BME280;18807;52.434;13.238;2023-05-21T00:22:30;76004.31;;;-142.05;84.21
32330;BME280;18807;52.434;13.238;2023-05-21T00:30:06;76002.28;;;-142.05;83.93
32330;BME280;18807;52.434;13.238;2023-05-21T00:37:42;76006.34;;;-142.05;84.49
32330;BME280;18807;52.434;13.238;2023-05-21T00:45:17;76024.72;;;-142.05;88.20
32330;BME280;18807;52.434;13.238;2023-05-21T00:52:53;76030.84;;;-142.05;89.72
32330;BME280;18807;52.434;13.238;2023-05-21T01:00:27;76045.13;;;-142.05;93.85
32330;BME280;18807;52.434;13.238;2023-05-21T01:08:03;76036.97;;;-142.05;92.39
32330;BME280;18807;52.434;13.238;2023-05-21T01:15:54;76041.06;;;-142.05;92.44
32330;BME280;18807;52.434;13.238;2023-05-21T01:23:32;76036.97;;;-142.05;94.35
32330;BME280;18807;52.434;13.238;2023-05-21T01:31:15;76045.13;;;-142.05;92.80
32330;BME280;18807;52.434;13.238;2023-05-21T01:38:59;76053.28;;;-142.05;97.84
32330;BME280;18807;52.434;13.238;2023-05-21T01:46:36;76063.50;;;-142.05;99.61
32330;BME280;18807;52.434;13.238;2023-05-21T01:54:13;76071.66;;;-142.05;100.00
32330;BME280;18807;52.434;13.238;2023-05-21T02:01:47;76065.53;;;-142.05;100.00
32330;BME280;18807;52.434;13.238;2023-05-21T02:09:23;76073.72;;;-142.05;100.00
32330;BME280;18807;52.434;13.238;2023-05-21T02:16:57;76079.81;;;-142.05;100.00
32330;BME280;18807;52.434;13.238;2023-05-21T02:24:49;76073.72;;;-142.05;100.00
32330;BME280;18807;52.434;13.238;2023-05-21T02:32:23;76083.91;;;-142.05;100.00
32330;BME280;18807;52.434;13.238;2023-05-21T02:39:59;76090.03;;;-142.05;100.00
32330;BME280;18807;52.434;13.238;2023-05-21T02:47:34;76100.25;;;-142.05;100.00
32330;BME280;18807;52.434;13.238;2023-05-21T02:55:10;76106.38;;;-142.05;100.00
32330;BME280;18807;52.434;13.238;2023-05-21T03:02:44;76116.56;;;-142.05;100.00
32330;BME280;18807;52.434;13.238;2023-05-21T03:10:20;76126.78;;;-142.05;100.00
32330;BME280;18807;52.434;13.238;2023-05-21T03:17:54;76124.72;;;-142.05;100.00
32330;BME280;18807;52.434;13.238;2023-05-21T03:25:30;76126.78;;;-142.05;100.00
32330;BME280;18807;52.434;13.238;2023-05-21T03:33:04;76130.84;;;-142.05;100.00
32330;BME280;18807;52.434;13.238;2023-05-21T03:40:39;76134.94;;;-142.05;100.00
32330;BME280;18807;52.434;13.238;2023-05-21T03:48:13;76132.91;;;-142.05;100.00
32330;BME280;18807;52.434;13.238;2023-05-21T03:55:49;76128.81;;;-142.05;100.00
32330;BME280;18807;52.434;13.238;2023-05-21T04:03:27;76132.91;;;-142.05;100.00
32330;BME280;18807;52.434;13.238;2023-05-21T04:11:02;76132.91;;;-142.05;100.00
32330;BME280;18807;52.434;13.238;2023-05-21T04:18:36;76118.59;;;-142.05;100.00
32330;BME280;18807;52.434;13.238;2023-05-21T04:26:12;76114.53;;;-142.05;100.00
32330;BME280;18807;52.434;13.238;2023-05-21T04:33:47;76098.19;;;-142.05;100.00
32330;BME280;18807;52.434;13.238;2023-05-21T04:41:23;76079.81;;;-142.05;100.00
32330;BME280;18807;52.434;13.238;2023-05-21T04:48:57;76053.28;;;-142.05;100.00
32330;BME280;18807;52.434;13.238;2023-05-21T04:56:35;76032.88;;;-142.05;100.00
32330;BME280;18807;52.434;13.238;2023-05-21T05:04:09;76004.31;;;-142.05;100.00
32330;BME280;18807;52.434;13.238;2023-05-21T05:11:45;75983.91;;;-142.05;100.00
32330;BME280;18807;52.434;13.238;2023-05-21T05:19:19;75967.59;;;-142.05;100.00
32330;BME280;18807;52.434;13.238;2023-05-21T05:26:55;75945.13;;;-142.05;100.00
32330;BME280;18807;52.434;13.238;2023-05-21T05:34:29;75926.75;;;-142.05;100.00
32330;BME280;18807;52.434;13.238;2023-05-21T05:42:05;75890.03;;;-142.05;100.00
32330;BME280;18807;52.434;13.238;2023-05-21T05:49:39;75871.66;;;-142.05;100.00
32330;BME280;18807;52.434;13.238;2023-05-21T05:57:15;75859.41;;;-142.05;100.00
32330;BME280;18807;52.434;13.238;2023-05-21T06:04:49;75836.97;;;-142.05;100.00
32330;BME280;18807;52.434;13.238;2023-05-21T06:12:25;75816.56;;;-142.05;100.00
32330;BME280;18807;52.434;13.238;2023-05-21T06:28:53;75779.81;;;-142.05;95.94
32330;BME280;18807;52.434;13.238;2023-05-21T06:36:26;75753.28;;;-142.05;95.50
32330;BME280;18807;52.434;13.238;2023-05-21T06:44:20;75724.72;;;-142.05;89.65
32330;BME280;18807;52.434;13.238;2023-05-21T06:51:54;75688.00;;;-142.05;81.05
32330;BME280;18807;52.434;13.238;2023-05-21T06:59:47;75651.25;;;-142.05;83.63
32330;BME280;18807;52.434;13.238;2023-05-21T07:07:21;75600.25;;;-142.05;76.64
32330;BME280;18807;52.434;13.238;2023-05-21T07:14:56;75545.16;;;-142.05;72.66
32330;BME280;18807;52.434;13.238;2023-05-21T07:22:30;75514.53;;;-142.05;71.01
32330;BME280;18807;52.434;13.238;2023-05-21T07:30:08;75477.81;;;-142.05;68.23
32330;BME280;18807;52.434;13.238;2023-05-21T07:37:42;75430.88;;;-142.05;66.65
32330;BME280;18807;52.434;13.238;2023-05-21T07:45:35;75379.88;;;-142.05;64.25
32330;BME280;18807;52.434;13.238;2023-05-21T07:53:09;75339.06;;;-142.05;62.35
32330;BME280;18807;52.434;13.238;2023-05-21T08:01:02;75263.56;;;-142.05;60.17
32330;BME280;18807;52.434;13.238;2023-05-21T08:08:36;75192.13;;;-142.05;58.16
32330;BME280;18807;52.434;13.238;2023-05-21T08:16:11;75145.22;;;-142.05;55.96
32330;BME280;18807;52.434;13.238;2023-05-21T08:23:45;75081.97;;;-142.05;55.70
32330;BME280;18807;52.434;13.238;2023-05-21T08:31:20;75033.00;;;-142.05;54.85
32330;BME280;18807;52.434;13.238;2023-05-21T08:38:54;74975.88;;;-142.05;51.82
32330;BME280;18807;52.434;13.238;2023-05-21T08:46:32;74924.84;;;-142.05;50.84
32330;BME280;18807;52.434;13.238;2023-05-21T08:54:37;74922.81;;;-142.05;49.06
32330;BME280;18807;52.434;13.238;2023-05-21T09:02:12;74873.84;;;-142.05;48.53
32330;BME280;18807;52.434;13.238;2023-05-21T09:09:52;74855.50;;;-142.05;47.14
32330;BME280;18807;52.434;13.238;2023-05-21T09:17:29;74845.28;;;-142.05;47.06
32330;BME280;18807;52.434;13.238;2023-05-21T09:25:06;74804.47;;;-142.05;46.74
32330;BME280;18807;52.434;13.238;2023-05-21T09:32:43;74755.53;;;-142.05;45.17
32330;BME280;18807;52.434;13.238;2023-05-21T09:40:18;74726.97;;;-142.05;44.57
32330;BME280;18807;52.434;13.238;2023-05-21T09:47:55;74700.44;;;-142.05;42.10
32330;BME280;18807;52.434;13.238;2023-05-21T09:55:29;74645.34;;;-142.05;41.97
32330;BME280;18807;52.434;13.238;2023-05-21T10:03:08;74610.66;;;-142.05;40.21
32330;BME280;18807;52.434;13.238;2023-05-21T10:10:43;74571.91;;;-142.05;38.00
32330;BME280;18807;52.434;13.238;2023-05-21T10:18:19;74559.66;;;-142.05;39.09
32330;BME280;18807;52.434;13.238;2023-05-21T10:25:55;74533.16;;;-142.05;38.14
32330;BME280;18807;52.434;13.238;2023-05-21T10:33:30;74549.47;;;-142.05;37.09
32330;BME280;18807;52.434;13.238;2023-05-21T10:50:25;74531.09;;;-142.05;36.79
32330;BME280;18807;52.434;13.238;2023-05-21T10:58:29;74553.56;;;-142.05;36.20
32330;BME280;18807;52.434;13.238;2023-05-21T11:06:10;74525.00;;;-142.05;35.51
32330;BME280;18807;52.434;13.238;2023-05-21T11:13:44;74498.47;;;-142.05;35.34
32330;BME280;18807;52.434;13.238;2023-05-21T11:21:21;74451.56;;;-142.05;34.85
32330;BME280;18807;52.434;13.238;2023-05-21T11:29:07;74433.19;;;-142.05;35.22
32330;BME280;18807;52.434;13.238;2023-05-21T11:36:44;74400.56;;;-142.05;34.76
32330;BME280;18807;52.434;13.238;2023-05-21T11:44:20;74425.03;;;-142.05;34.81
32330;BME280;18807;52.434;13.238;2023-05-21T11:52:12;74402.59;;;-142.05;35.27
32330;BME280;18807;52.434;13.238;2023-05-21T11:59:47;74412.78;;;-142.05;34.85
32330;BME280;18807;52.434;13.238;2023-05-21T12:07:25;74414.84;;;-142.05;34.36
32330;BME280;18807;52.434;13.238;2023-05-21T12:15:00;74396.47;;;-142.05;34.80
32330;BME280;18807;52.434;13.238;2023-05-21T12:22:39;74404.63;;;-142.05;34.39
32330;BME280;18807;52.434;13.238;2023-05-21T12:30:14;74380.16;;;-142.05;34.75
32330;BME280;18807;52.434;13.238;2023-05-21T12:37:49;74345.47;;;-142.05;34.35
32330;BME280;18807;52.434;13.238;2023-05-21T12:45:23;74367.91;;;-142.05;34.20
32330;BME280;18807;52.434;13.238;2023-05-21T12:52:59;74378.13;;;-142.05;34.78
32330;BME280;18807;52.434;13.238;2023-05-21T13:00:33;74380.16;;;-142.05;34.37
32330;BME280;18807;52.434;13.238;2023-05-21T13:08:09;74327.13;;;-142.05;33.65
32330;BME280;18807;52.434;13.238;2023-05-21T13:15:45;74329.16;;;-142.05;33.75
32330;BME280;18807;52.434;13.238;2023-05-21T13:23:20;74335.28;;;-142.05;34.56
32330;BME280;18807;52.434;13.238;2023-05-21T13:30:54;74329.16;;;-142.05;34.52
32330;BME280;18807;52.434;13.238;2023-05-21T13:38:29;74310.78;;;-142.05;34.05
32330;BME280;18807;52.434;13.238;2023-05-21T13:46:03;74327.13;;;-142.05;33.75
32330;BME280;18807;52.434;13.238;2023-05-21T13:53:38;74349.56;;;-142.05;33.20
32330;BME280;18807;52.434;13.238;2023-05-21T14:01:12;74357.72;;;-142.05;34.36
32330;BME280;18807;52.434;13.238;2023-05-21T14:08:47;74347.50;;;-142.05;33.67
32330;BME280;18807;52.434;13.238;2023-05-21T14:16:21;74329.16;;;-142.05;33.88
32330;BME280;18807;52.434;13.238;2023-05-21T14:23:57;74331.19;;;-142.05;34.00
32330;BME280;18807;52.434;13.238;2023-05-21T14:40:26;74359.75;;;-142.05;34.33
32330;BME280;18807;52.434;13.238;2023-05-21T14:48:00;74341.41;;;-142.05;34.64
32330;BME280;18807;52.434;13.238;2023-05-21T14:55:35;74331.19;;;-142.05;34.14
32330;BME280;18807;52.434;13.238;2023-05-21T15:03:10;74349.56;;;-142.05;34.25
32330;BME280;18807;52.434;13.238;2023-05-21T15:10:46;74357.72;;;-142.05;34.43
32330;BME280;18807;52.434;13.238;2023-05-21T15:18:20;74325.06;;;-142.05;34.34
32330;BME280;18807;52.434;13.238;2023-05-21T15:25:57;74353.63;;;-142.05;34.60
32330;BME280;18807;52.434;13.238;2023-05-21T15:33:31;74355.69;;;-142.05;34.15
32330;BME280;18807;52.434;13.238;2023-05-21T15:41:06;74327.13;;;-142.05;34.54
32330;BME280;18807;52.434;13.238;2023-05-21T15:48:40;74337.31;;;-142.05;34.26
32330;BME280;18807;52.434;13.238;2023-05-21T16:05:08;74331.19;;;-142.05;34.15
32330;BME280;18807;52.434;13.238;2023-05-21T16:12:42;74347.50;;;-142.05;34.47
32330;BME280;18807;52.434;13.238;2023-05-21T16:20:17;74339.34;;;-142.05;34.47
32330;BME280;18807;52.434;13.238;2023-05-21T16:27:53;74347.50;;;-142.05;33.92
32330;BME280;18807;52.434;13.238;2023-05-21T16:35:30;74353.63;;;-142.05;33.87
32330;BME280;18807;52.434;13.238;2023-05-21T16:43:04;74378.13;;;-142.05;34.34
32330;BME280;18807;52.434;13.238;2023-05-21T16:50:40;74404.63;;;-142.05;34.04
32330;BME280;18807;52.434;13.238;2023-05-21T16:58:13;74431.16;;;-142.05;34.38
32330;BME280;18807;52.434;13.238;2023-05-21T17:05:49;74451.56;;;-142.05;34.26
32330;BME280;18807;52.434;13.238;2023-05-21T17:13:24;74469.91;;;-142.05;34.06
32330;BME280;18807;52.434;13.238;2023-05-21T17:20:59;74484.19;;;-142.05;34.22
32330;BME280;18807;52.434;13.238;2023-05-21T17:28:33;74506.63;;;-142.05;34.57
32330;BME280;18807;52.434;13.238;2023-05-21T17:36:09;74537.22;;;-142.05;35.07
32330;BME280;18807;52.434;13.238;2023-05-21T17:43:43;74569.88;;;-142.05;36.45
32330;BME280;18807;52.434;13.238;2023-05-21T17:51:18;74608.63;;;-142.05;36.03
32330;BME280;18807;52.434;13.238;2023-05-21T17:58:52;74622.91;;;-142.05;35.96
32330;BME280;18807;52.434;13.238;2023-05-21T18:06:27;74639.22;;;-142.05;36.28
32330;BME280;18807;52.434;13.238;2023-05-21T18:14:02;74657.59;;;-142.05;36.00
32330;BME280;18807;52.434;13.238;2023-05-21T18:21:38;74669.84;;;-142.05;35.90
32330;BME280;18807;52.434;13.238;2023-05-21T18:29:12;74690.22;;;-142.05;36.04
32330;BME280;18807;52.434;13.238;2023-05-21T18:36:47;74702.47;;;-142.05;35.88
32330;BME280;18807;52.434;13.238;2023-05-21T18:44:22;74722.88;;;-142.05;36.04
32330;BME280;18807;52.434;13.238;2023-05-21T18:51:57;74739.19;;;-142.05;36.14
32330;BME280;18807;52.434;13.238;2023-05-21T18:59:32;74763.69;;;-142.05;36.30
32330;BME280;18807;52.434;13.238;2023-05-21T19:07:08;74775.91;;;-142.05;36.42
32330;BME280;18807;52.434;13.238;2023-05-21T19:14:42;74804.47;;;-142.05;36.38
32330;BME280;18807;52.434;13.238;2023-05-21T19:22:18;74822.84;;;-142.05;36.40
32330;BME280;18807;52.434;13.238;2023-05-21T19:29:51;74839.16;;;-142.05;36.20
32330;BME280;18807;52.434;13.238;2023-05-21T19:37:27;74859.56;;;-142.05;36.43
32330;BME280;18807;52.434;13.238;2023-05-21T19:45:01;74877.94;;;-142.05;36.70
32330;BME280;18807;52.434;13.238;2023-05-21T19:52:37;74892.22;;;-142.05;36.77
32330;BME280;18807;52.434;13.238;2023-05-21T20:00:12;74906.50;;;-142.05;37.14
32330;BME280;18807;52.434;13.238;2023-05-21T20:07:48;74926.91;;;-142.05;37.19
32330;BME280;18807;52.434;13.238;2023-05-21T20:15:22;74941.19;;;-142.05;37.45
32330;BME280;18807;52.434;13.238;2023-05-21T20:22:57;74953.41;;;-142.05;37.09
32330;BME280;18807;52.434;13.238;2023-05-21T20:30:50;74959.53;;;-142.05;37.09
32330;BME280;18807;52.434;13.238;2023-05-21T20:38:26;74959.53;;;-142.05;37.20
32330;BME280;18807;52.434;13.238;2023-05-21T20:46:03;74975.88;;;-142.05;37.15
32330;BME280;18807;52.434;13.238;2023-05-21T20:53:39;74979.94;;;-142.05;37.13
32330;BME280;18807;52.434;13.238;2023-05-21T21:01:13;74992.19;;;-142.05;36.94
32330;BME280;18807;52.434;13.238;2023-05-21T21:08:50;75000.34;;;-142.05;36.71
32330;BME280;18807;52.434;13.238;2023-05-21T21:25:21;75028.91;;;-142.05;36.79
32330;BME280;18807;52.434;13.238;2023-05-21T21:32:55;75039.09;;;-142.05;36.83
32330;BME280;18807;52.434;13.238;2023-05-21T21:40:31;75061.56;;;-142.05;37.07
32330;BME280;18807;52.434;13.238;2023-05-21T21:48:05;75081.97;;;-142.05;37.33
32330;BME280;18807;52.434;13.238;2023-05-21T21:55:41;75092.16;;;-142.05;37.44
32330;BME280;18807;52.434;13.238;2023-05-21T22:03:15;75110.53;;;-142.05;37.83
32330;BME280;18807;52.434;13.238;2023-05-21T22:10:50;75124.81;;;-142.05;38.21
32330;BME280;18807;52.434;13.238;2023-05-21T22:18:24;75145.22;;;-142.05;38.48
32330;BME280;18807;52.434;13.238;2023-05-21T22:26:13;75161.53;;;-142.05;39.00
32330;BME280;18807;52.434;13.238;2023-05-21T22:33:47;75186.03;;;-142.05;39.53
32330;BME280;18807;52.434;13.238;2023-05-21T22:41:22;75204.38;;;-142.05;40.08
32330;BME280;18807;52.434;13.238;2023-05-21T22:48:56;75212.53;;;-142.05;40.51
32330;BME280;18807;52.434;13.238;2023-05-21T22:56:33;75243.16;;;-142.05;40.85
32330;BME280;18807;52.434;13.238;2023-05-21T23:04:07;75253.34;;;-142.05;40.94
32330;BME280;18807;52.434;13.238;2023-05-21T23:11:43;75259.47;;;-142.05;41.03
32330;BME280;18807;52.434;13.238;2023-05-21T23:19:17;75277.84;;;-142.05;41.15
32330;BME280;18807;52.434;13.238;2023-05-21T23:26:52;75292.13;;;-142.05;41.54
32330;BME280;18807;52.434;13.238;2023-05-21T23:34:28;75296.19;;;-142.05;41.51
32330;BME280;18807;52.434;13.238;2023-05-21T23:42:04;75298.25;;;-142.05;41.55
32330;BME280;18807;52.434;13.238;2023-05-21T23:49:38;75310.47;;;-142.05;41.70
32330;BME280;18807;52.434;13.238;2023-05-21T23:57:13;75314.56;;;-142.05;41.64
